Time;durP1;ratioP1;P1;durP2;ratioP2;P2;SDS_P1;SDS_P2;PMS_P1;PMS_P2;Temp;Humidity;BMP_temperature;BMP_pressure;BME280_temperature;BME280_humidity;BME280_pressure;Samples;Min_cycle;Max_cycle;Signal;HPM_P1;HPM_P2
2022/12/21 00:01:21;;;;;;;1.60;1.20;;;10.20;98.20;;;;;;5043114;28;20539;-75
2022/12/21 00:03:51;;;;;;;1.60;1.10;;;10.20;98.20;;;;;;5049703;28;20978;-74
2022/12/21 00:06:17;;;;;;;1.60;1.10;;;10.20;98.20;;;;;;5041276;28;20473;-75
2022/12/21 00:08:46;;;;;;;1.60;1.20;;;10.20;98.20;;;;;;5057228;28;20989;-75
2022/12/21 00:11:14;;;;;;;1.60;1.23;;;10.20;98.20;;;;;;5042655;28;20938;-75
2022/12/21 00:13:42;;;;;;;1.60;1.20;;;10.20;98.20;;;;;;5050858;28;20478;-75
2022/12/21 00:16:13;;;;;;;1.60;1.10;;;10.20;98.20;;;;;;5026562;28;20479;-75
2022/12/21 00:18:40;;;;;;;1.60;1.10;;;10.30;98.20;;;;;;5052413;28;20465;-75
2022/12/21 00:21:10;;;;;;;1.63;1.20;;;10.30;98.20;;;;;;5041083;28;21022;-75
2022/12/21 00:23:37;;;;;;;1.63;1.20;;;10.30;98.20;;;;;;5050923;28;20569;-75
2022/12/21 00:26:06;;;;;;;1.60;1.13;;;10.30;98.20;;;;;;5039732;28;20467;-76
2022/12/21 00:28:33;;;;;;;1.60;1.10;;;10.30;98.20;;;;;;5052850;28;20465;-75
2022/12/21 00:31:06;;;;;;;1.60;1.10;;;10.30;98.20;;;;;;5039968;28;20462;-76
2022/12/21 00:33:35;;;;;;;1.60;1.10;;;10.30;98.20;;;;;;5051553;28;20450;-75
2022/12/21 00:36:02;;;;;;;1.63;1.20;;;10.30;98.20;;;;;;5032573;28;20957;-76
2022/12/21 00:38:29;;;;;;;1.67;1.23;;;10.30;98.20;;;;;;5056118;28;20918;-75
2022/12/21 00:40:58;;;;;;;1.60;1.20;;;10.30;98.20;;;;;;5038442;28;20627;-75
2022/12/21 00:43:25;;;;;;;1.60;1.30;;;10.30;98.20;;;;;;5052993;28;20497;-73
2022/12/21 00:45:52;;;;;;;1.60;1.30;;;10.30;98.20;;;;;;5039711;28;20511;-73
2022/12/21 00:48:19;;;;;;;1.60;1.10;;;10.30;98.20;;;;;;5052780;28;20918;-73
2022/12/21 00:50:47;;;;;;;1.60;1.10;;;10.30;98.20;;;;;;5042441;28;20459;-75
2022/12/21 00:53:14;;;;;;;1.60;1.20;;;10.30;98.20;;;;;;5016464;28;20969;-75
2022/12/21 00:55:41;;;;;;;1.60;1.10;;;10.30;98.20;;;;;;5039879;28;20463;-76
2022/12/21 00:58:08;;;;;;;1.60;1.10;;;10.30;98.20;;;;;;5044058;28;20504;-76
2022/12/21 01:00:35;;;;;;;1.60;1.17;;;10.30;98.20;;;;;;5047905;28;20474;-77
2022/12/21 01:03:02;;;;;;;1.60;1.10;;;10.30;98.20;;;;;;5042090;28;20489;-75
2022/12/21 01:05:29;;;;;;;1.60;1.10;;;10.30;98.20;;;;;;5042438;28;20546;-75
2022/12/21 01:07:57;;;;;;;1.60;1.10;;;10.30;98.20;;;;;;5045271;28;20486;-75
2022/12/21 01:10:24;;;;;;;1.60;1.10;;;10.20;98.20;;;;;;5049862;28;20462;-75
2022/12/21 01:12:51;;;;;;;1.60;1.10;;;10.20;98.20;;;;;;5043261;28;21027;-75
2022/12/21 01:15:17;;;;;;;1.60;1.10;;;10.20;98.20;;;;;;5048592;28;20481;-75
2022/12/21 01:17:44;;;;;;;1.60;1.10;;;10.20;98.20;;;;;;5046989;28;20489;-75
2022/12/21 01:20:11;;;;;;;1.60;1.30;;;10.20;98.20;;;;;;5041128;28;20485;-75
2022/12/21 01:22:38;;;;;;;1.60;1.20;;;10.20;98.20;;;;;;5042157;28;20492;-75
2022/12/21 01:25:07;;;;;;;1.60;1.20;;;10.20;98.20;;;;;;5041073;28;20609;-75
2022/12/21 01:27:34;;;;;;;1.63;1.20;;;10.20;98.20;;;;;;5041944;28;20666;-75
2022/12/21 01:30:00;;;;;;;1.60;1.00;;;10.20;98.20;;;;;;5048822;28;20473;-75
2022/12/21 01:32:27;;;;;;;1.60;1.10;;;10.20;98.20;;;;;;5042336;28;20664;-75
2022/12/21 01:34:54;;;;;;;1.63;1.20;;;10.20;98.20;;;;;;5046726;28;20490;-75
2022/12/21 01:37:20;;;;;;;1.60;1.10;;;10.20;98.20;;;;;;5033973;28;21052;-75
2022/12/21 01:39:47;;;;;;;1.67;1.20;;;10.20;98.20;;;;;;5046284;28;20516;-75
2022/12/21 01:42:15;;;;;;;1.60;1.20;;;10.20;98.20;;;;;;5042375;28;20870;-75
2022/12/21 01:45:02;;;;;;;1.60;1.20;;;10.20;98.20;;;;;;5048314;28;20497;-76
2022/12/21 01:47:37;;;;;;;1.60;1.10;;;10.20;98.20;;;;;;5041870;28;20536;-75
2022/12/21 01:50:23;;;;;;;1.60;1.10;;;10.20;98.20;;;;;;5040841;28;20468;-75
2022/12/21 01:52:50;;;;;;;1.60;1.20;;;10.20;98.20;;;;;;5041775;28;20485;-75
2022/12/21 01:55:18;;;;;;;3.30;1.80;;;10.20;98.20;;;;;;5043832;28;20537;-75
2022/12/21 01:57:46;;;;;;;1.70;1.30;;;10.20;98.20;;;;;;5040953;28;20505;-75
2022/12/21 02:00:14;;;;;;;1.60;1.20;;;10.20;98.20;;;;;;5049098;28;20465;-75
2022/12/21 02:02:45;;;;;;;1.60;1.20;;;10.20;98.20;;;;;;5023595;28;20547;-75
2022/12/21 02:05:19;;;;;;;1.63;1.23;;;10.20;98.20;;;;;;5041158;28;21057;-75
2022/12/21 02:07:46;;;;;;;1.60;1.10;;;10.20;98.20;;;;;;5045043;28;20482;-76
2022/12/21 02:10:14;;;;;;;1.60;1.20;;;10.20;98.20;;;;;;5048786;28;20951;-75
2022/12/21 02:12:41;;;;;;;1.67;1.20;;;10.20;98.20;;;;;;5043018;28;20494;-75
2022/12/21 02:15:11;;;;;;;1.60;1.10;;;10.20;98.20;;;;;;5048308;28;20840;-75
2022/12/21 02:17:51;;;;;;;1.60;1.13;;;10.20;98.20;;;;;;5043814;28;20478;-75
2022/12/21 02:20:43;;;;;;;1.67;1.20;;;10.20;98.20;;;;;;5042899;28;20745;-75
2022/12/21 02:23:28;;;;;;;1.60;1.10;;;10.20;98.20;;;;;;5041456;28;20505;-75
2022/12/21 02:26:18;;;;;;;1.60;1.20;;;10.20;98.20;;;;;;5037080;28;20462;-75
2022/12/21 02:29:21;;;;;;;1.60;1.20;;;10.20;98.20;;;;;;5043635;28;20454;-75
2022/12/21 02:31:58;;;;;;;1.60;1.20;;;10.10;98.20;;;;;;5021238;28;20505;-75
2022/12/21 02:34:34;;;;;;;1.60;1.10;;;10.10;98.20;;;;;;5042952;28;20489;-75
2022/12/21 02:37:08;;;;;;;1.60;1.20;;;10.10;98.20;;;;;;5038259;28;20480;-72
2022/12/21 02:39:45;;;;;;;1.60;1.13;;;10.10;98.20;;;;;;5043369;28;20690;-75
2022/12/21 02:45:10;;;;;;;1.60;1.20;;;10.10;98.20;;;;;;5045281;28;20482;-75
2022/12/21 02:47:45;;;;;;;1.60;1.10;;;10.10;98.20;;;;;;5022433;28;21011;-75
2022/12/21 02:50:14;;;;;;;1.70;1.30;;;10.10;98.20;;;;;;5043806;28;20453;-76
2022/12/21 02:52:47;;;;;;;1.63;1.20;;;10.10;98.20;;;;;;5042514;28;20478;-75
2022/12/21 02:55:14;;;;;;;1.60;1.10;;;10.10;98.20;;;;;;5039204;28;20834;-73
2022/12/21 02:57:44;;;;;;;1.63;1.20;;;10.10;98.20;;;;;;5040333;28;21007;-75
2022/12/21 03:00:14;;;;;;;1.60;1.20;;;10.10;98.20;;;;;;5045797;28;20493;-75
2022/12/21 03:06:10;;;;;;;1.60;1.20;;;10.10;98.20;;;;;;5032280;28;20960;-75
2022/12/21 03:08:46;;;;;;;1.60;1.23;;;10.10;98.20;;;;;;5051200;28;20465;-75
2022/12/21 03:11:13;;;;;;;1.60;1.10;;;10.00;98.20;;;;;;5037836;28;20473;-75
2022/12/21 03:13:47;;;;;;;1.60;1.10;;;10.10;98.20;;;;;;5047558;28;20477;-75
2022/12/21 03:16:19;;;;;;;1.63;1.17;;;10.00;98.20;;;;;;5038545;28;20480;-75
2022/12/21 03:18:59;;;;;;;1.60;1.10;;;10.00;98.20;;;;;;5045863;28;20629;-76
2022/12/21 03:21:32;;;;;;;1.60;1.20;;;10.00;98.20;;;;;;5040796;28;20836;-75
2022/12/21 03:24:06;;;;;;;1.60;1.10;;;10.00;98.20;;;;;;5045270;28;20999;-75
2022/12/21 03:26:37;;;;;;;1.60;1.30;;;10.00;98.20;;;;;;5041422;28;20481;-75
2022/12/21 03:29:05;;;;;;;1.60;1.20;;;10.00;98.20;;;;;;5044437;28;21002;-75
2022/12/21 03:31:38;;;;;;;1.60;1.20;;;10.00;98.20;;;;;;5037256;28;20481;-76
2022/12/21 03:34:10;;;;;;;1.63;1.20;;;10.00;98.20;;;;;;5045379;28;20493;-76
2022/12/21 03:36:43;;;;;;;1.60;1.20;;;10.00;98.20;;;;;;5035081;28;20478;-76
2022/12/21 03:39:12;;;;;;;1.60;1.20;;;10.00;98.20;;;;;;5044677;28;20550;-76
2022/12/21 03:41:45;;;;;;;1.60;1.20;;;10.00;98.20;;;;;;5038100;28;20993;-76
2022/12/21 03:44:18;;;;;;;1.63;1.27;;;10.00;98.20;;;;;;5044795;28;20486;-76
2022/12/21 03:46:49;;;;;;;1.60;1.20;;;10.00;98.20;;;;;;5040277;28;20492;-76
2022/12/21 03:49:21;;;;;;;1.70;1.30;;;10.00;98.20;;;;;;5039918;28;20455;-76
2022/12/21 03:51:51;;;;;;;1.67;1.20;;;10.00;98.20;;;;;;5039539;28;20469;-76
2022/12/21 03:54:28;;;;;;;1.60;1.20;;;9.90;98.20;;;;;;5039055;28;20476;-76
2022/12/21 03:56:56;;;;;;;1.63;1.20;;;9.90;98.20;;;;;;5035175;28;20493;-76
2022/12/21 03:59:24;;;;;;;1.63;1.20;;;9.90;98.20;;;;;;5041280;28;20856;-76
2022/12/21 04:01:59;;;;;;;1.60;1.10;;;9.90;98.20;;;;;;5039020;28;20533;-76
2022/12/21 04:04:32;;;;;;;1.60;1.10;;;9.90;98.20;;;;;;5050232;28;21016;-76
2022/12/21 04:07:03;;;;;;;1.67;1.20;;;9.90;98.20;;;;;;5035730;28;20482;-76
2022/12/21 04:09:30;;;;;;;1.70;1.20;;;9.90;98.20;;;;;;5044289;28;20829;-76
2022/12/21 04:14:42;;;;;;;1.60;1.10;;;9.90;98.20;;;;;;5045498;28;20485;-76
2022/12/21 04:17:09;;;;;;;1.60;1.30;;;9.90;98.20;;;;;;5038886;28;20485;-75
2022/12/21 04:30:30;;;;;;;1.60;1.10;;;9.90;98.20;;;;;;5046253;28;21016;-76
2022/12/21 04:32:57;;;;;;;1.60;1.10;;;9.90;98.20;;;;;;5042277;28;20481;-76
2022/12/21 04:35:25;;;;;;;1.60;1.20;;;9.90;98.20;;;;;;5049833;28;21150;-75
2022/12/21 04:37:51;;;;;;;1.67;1.20;;;9.90;98.20;;;;;;5037473;28;20604;-76
2022/12/21 04:40:18;;;;;;;1.60;1.10;;;9.90;98.20;;;;;;5049259;28;21323;-75
2022/12/21 04:42:45;;;;;;;1.60;1.20;;;9.90;98.20;;;;;;5044802;28;20227;-76
2022/12/21 04:47:41;;;;;;;1.60;1.20;;;9.90;98.20;;;;;;5004369;28;20726;-75
2022/12/21 04:50:09;;;;;;;1.60;1.20;;;9.90;98.20;;;;;;5022692;28;20466;-76
2022/12/21 04:52:37;;;;;;;1.60;1.10;;;9.90;98.20;;;;;;5016829;28;20498;-76
2022/12/21 04:55:04;;;;;;;1.60;1.10;;;9.90;98.20;;;;;;5025859;28;20808;-76
2022/12/21 04:57:31;;;;;;;1.60;1.10;;;9.90;98.20;;;;;;5017312;28;20566;-76
2022/12/21 04:59:58;;;;;;;1.67;1.20;;;9.90;98.20;;;;;;5028704;28;20811;-75
2022/12/21 05:02:25;;;;;;;1.60;1.10;;;9.90;98.20;;;;;;5016711;28;20495;-76
2022/12/21 05:04:52;;;;;;;1.60;1.20;;;9.90;98.20;;;;;;5023974;28;20491;-76
2022/12/21 05:07:19;;;;;;;1.60;1.20;;;9.90;98.20;;;;;;5018009;28;20495;-75
2022/12/21 05:09:47;;;;;;;1.60;1.23;;;9.90;98.20;;;;;;5028952;28;20753;-76
2022/12/21 05:12:14;;;;;;;1.70;1.27;;;9.90;98.20;;;;;;5017890;28;20513;-76
2022/12/21 05:14:40;;;;;;;7.73;2.13;;;9.90;98.20;;;;;;5021772;28;20479;-77
2022/12/21 05:17:07;;;;;;;1.60;1.20;;;9.90;98.20;;;;;;5018029;28;20479;-76
2022/12/21 05:19:34;;;;;;;1.60;1.13;;;9.90;98.20;;;;;;5023538;28;20606;-76
2022/12/21 05:22:00;;;;;;;1.60;1.10;;;9.90;98.20;;;;;;5018370;28;20995;-76
2022/12/21 05:24:27;;;;;;;1.60;1.20;;;9.90;98.20;;;;;;5024636;28;20497;-76
2022/12/21 05:26:55;;;;;;;1.60;1.30;;;9.90;98.20;;;;;;5012299;28;21031;-76
2022/12/21 05:29:22;;;;;;;1.60;1.10;;;9.90;98.20;;;;;;5015322;28;20463;-76
2022/12/21 05:31:49;;;;;;;1.60;1.20;;;9.90;98.20;;;;;;5010151;28;20948;-76
2022/12/21 05:34:15;;;;;;;1.60;1.10;;;9.90;98.20;;;;;;5027924;28;20483;-76
2022/12/21 05:36:42;;;;;;;1.60;1.13;;;9.90;98.20;;;;;;5015184;28;20479;-76
2022/12/21 05:39:09;;;;;;;1.60;1.10;;;9.90;98.20;;;;;;5025388;28;20467;-75
2022/12/21 05:41:35;;;;;;;1.60;1.10;;;9.90;98.20;;;;;;5010571;28;20491;-75
2022/12/21 05:44:04;;;;;;;1.63;1.20;;;9.90;98.20;;;;;;5026765;28;20459;-75
2022/12/21 05:46:31;;;;;;;1.67;1.20;;;9.90;98.20;;;;;;5016561;28;20490;-75
2022/12/21 05:48:57;;;;;;;1.70;1.20;;;9.90;98.20;;;;;;5020929;28;20817;-74
2022/12/21 05:51:24;;;;;;;1.60;1.10;;;9.90;98.20;;;;;;5007435;28;20479;-75
2022/12/21 05:53:51;;;;;;;1.60;1.10;;;9.90;98.20;;;;;;5021995;28;20467;-76
2022/12/21 05:56:18;;;;;;;1.60;1.10;;;9.90;98.20;;;;;;5014040;28;20491;-78
2022/12/21 05:58:45;;;;;;;1.60;1.20;;;9.90;98.20;;;;;;5030917;28;20466;-77
2022/12/21 06:01:14;;;;;;;1.60;1.10;;;9.90;98.20;;;;;;5015656;28;20475;-77
2022/12/21 06:03:41;;;;;;;1.60;1.10;;;9.90;98.20;;;;;;5029265;28;20824;-78
2022/12/21 06:06:10;;;;;;;1.60;1.10;;;9.90;98.20;;;;;;5008596;28;20479;-78
2022/12/21 06:08:37;;;;;;;1.67;1.20;;;9.90;98.20;;;;;;5029505;28;20467;-78
2022/12/21 06:11:06;;;;;;;1.60;1.17;;;9.90;98.20;;;;;;5014062;28;20463;-79
2022/12/21 06:13:33;;;;;;;1.60;1.10;;;9.90;98.20;;;;;;5029966;28;20952;-79
2022/12/21 06:16:05;;;;;;;1.63;1.30;;;9.90;98.20;;;;;;5004956;28;20483;-78
2022/12/21 06:18:34;;;;;;;1.60;1.20;;;9.90;98.20;;;;;;5021776;28;20490;-78
2022/12/21 06:21:01;;;;;;;1.60;1.17;;;9.90;98.20;;;;;;5015225;28;20467;-78
2022/12/21 06:23:28;;;;;;;1.60;1.10;;;9.90;98.20;;;;;;5024296;28;20523;-77
2022/12/21 06:25:56;;;;;;;1.60;1.10;;;9.90;98.20;;;;;;5012987;28;20785;-78
2022/12/21 06:28:25;;;;;;;1.60;1.10;;;9.90;98.20;;;;;;5024447;28;20464;-81
2022/12/21 06:30:52;;;;;;;1.63;1.20;;;9.90;98.20;;;;;;5010799;28;20467;-81
2022/12/21 06:33:20;;;;;;;1.60;1.10;;;9.90;98.20;;;;;;5021179;28;20501;-77
2022/12/21 06:35:49;;;;;;;1.60;1.10;;;9.90;98.20;;;;;;5027038;28;20475;-79
2022/12/21 06:38:15;;;;;;;1.60;1.10;;;10.00;98.20;;;;;;5024772;28;20514;-79
2022/12/21 06:40:42;;;;;;;1.60;1.10;;;10.00;98.20;;;;;;5029290;28;20472;-79
2022/12/21 06:43:10;;;;;;;1.60;1.10;;;9.90;98.20;;;;;;5017481;28;20502;-78
2022/12/21 06:45:37;;;;;;;1.60;1.20;;;9.90;98.20;;;;;;5026537;28;20502;-80
2022/12/21 06:48:04;;;;;;;1.60;1.10;;;10.00;98.20;;;;;;5016620;28;20843;-78
2022/12/21 06:50:31;;;;;;;1.60;1.20;;;10.00;98.20;;;;;;5025288;28;20459;-79
2022/12/21 06:52:59;;;;;;;1.60;1.10;;;10.00;98.20;;;;;;5005212;28;20492;-78
2022/12/21 06:55:26;;;;;;;1.60;1.10;;;10.00;98.20;;;;;;5023776;28;20483;-77
2022/12/21 06:57:53;;;;;;;1.60;1.20;;;10.00;98.20;;;;;;5015543;28;20490;-78
2022/12/21 07:00:21;;;;;;;1.60;1.20;;;10.00;98.20;;;;;;5023187;28;20474;-79
2022/12/21 07:02:48;;;;;;;1.60;1.20;;;10.00;98.20;;;;;;5011220;28;20485;-78
2022/12/21 07:05:15;;;;;;;1.60;1.10;;;10.00;98.20;;;;;;5023424;28;20866;-77
2022/12/21 07:07:41;;;;;;;1.60;1.20;;;10.00;98.20;;;;;;5009969;28;20491;-78
2022/12/21 07:10:10;;;;;;;1.60;1.10;;;10.00;98.20;;;;;;5022859;28;20487;-76
2022/12/21 07:12:37;;;;;;;1.60;1.20;;;10.00;98.20;;;;;;5007198;28;20479;-77
2022/12/21 07:15:05;;;;;;;1.67;1.20;;;10.00;98.20;;;;;;5021032;28;20502;-77
2022/12/21 07:17:32;;;;;;;1.63;1.10;;;10.00;98.20;;;;;;5007877;28;21023;-77
2022/12/21 07:19:58;;;;;;;1.63;1.20;;;10.00;98.20;;;;;;5023925;28;20463;-76
2022/12/21 07:22:25;;;;;;;1.60;1.13;;;10.00;98.20;;;;;;5004711;28;20878;-77
2022/12/21 07:24:52;;;;;;;1.60;1.20;;;10.00;98.20;;;;;;5021244;28;20715;-77
2022/12/21 07:27:20;;;;;;;1.63;1.20;;;10.00;98.20;;;;;;5004704;28;20512;-77
2022/12/21 07:29:47;;;;;;;1.60;1.10;;;10.00;98.20;;;;;;5020264;28;20459;-76
2022/12/21 07:32:13;;;;;;;1.60;1.10;;;10.00;98.20;;;;;;5007067;28;20490;-78
2022/12/21 07:34:40;;;;;;;1.60;1.20;;;10.00;98.20;;;;;;5020402;28;20482;-76
2022/12/21 07:37:07;;;;;;;1.70;1.27;;;10.00;98.20;;;;;;5006057;28;21109;-77
2022/12/21 07:39:35;;;;;;;1.60;1.10;;;10.00;98.20;;;;;;5019536;28;20926;-74
2022/12/21 07:42:01;;;;;;;1.70;1.23;;;10.00;98.20;;;;;;5007951;28;21094;-76
2022/12/21 07:44:30;;;;;;;1.60;1.10;;;10.00;98.20;;;;;;5021164;28;20486;-77
2022/12/21 07:46:56;;;;;;;1.60;1.20;;;10.00;98.20;;;;;;5013753;28;20475;-78
2022/12/21 07:49:23;;;;;;;1.63;1.20;;;10.00;98.20;;;;;;5023475;28;20467;-75
2022/12/21 07:51:50;;;;;;;1.60;1.10;;;10.00;98.20;;;;;;5009007;28;20511;-78
2022/12/21 07:54:17;;;;;;;1.60;1.20;;;10.00;98.20;;;;;;5019636;28;20906;-77
2022/12/21 07:56:44;;;;;;;1.60;1.10;;;10.00;98.20;;;;;;5005625;28;20481;-79
2022/12/21 07:59:11;;;;;;;1.60;1.20;;;10.00;98.20;;;;;;5014796;28;20463;-77
2022/12/21 08:01:40;;;;;;;1.60;1.20;;;10.00;98.20;;;;;;5006236;28;20959;-76
2022/12/21 08:04:07;;;;;;;1.60;1.20;;;10.00;98.20;;;;;;5018733;28;20479;-79
2022/12/21 08:06:34;;;;;;;1.60;1.10;;;10.00;98.20;;;;;;5009448;28;20752;-77
2022/12/21 08:09:02;;;;;;;1.60;1.10;;;10.00;98.20;;;;;;5021072;28;20459;-76
2022/12/21 08:11:30;;;;;;;1.60;1.10;;;10.10;98.20;;;;;;5016572;28;20567;-77
2022/12/21 08:13:57;;;;;;;1.63;1.20;;;10.10;98.20;;;;;;5022389;28;20996;-75
2022/12/21 08:16:27;;;;;;;1.60;1.13;;;10.10;98.20;;;;;;5010281;28;20965;-75
2022/12/21 08:18:57;;;;;;;1.60;1.20;;;10.10;98.20;;;;;;5015694;28;20968;-74
2022/12/21 08:21:24;;;;;;;1.60;1.20;;;10.10;98.20;;;;;;5011208;28;20585;-75
2022/12/21 08:23:51;;;;;;;1.60;1.20;;;10.10;98.20;;;;;;5019627;28;20463;-77
2022/12/21 08:26:20;;;;;;;1.60;1.20;;;10.10;98.20;;;;;;5013516;28;20494;-76
2022/12/21 08:28:48;;;;;;;1.60;1.10;;;10.10;98.20;;;;;;5017046;28;20467;-78
2022/12/21 08:31:17;;;;;;;1.60;1.13;;;10.10;98.20;;;;;;5019062;28;20486;-79
2022/12/21 08:33:45;;;;;;;1.60;1.20;;;10.10;98.20;;;;;;5026080;28;20466;-76
2022/12/21 08:36:15;;;;;;;1.60;1.20;;;10.10;98.20;;;;;;5010331;28;20522;-75
2022/12/21 08:38:42;;;;;;;1.60;1.10;;;10.10;98.20;;;;;;5016549;28;20470;-77
2022/12/21 08:41:09;;;;;;;1.60;1.20;;;10.10;98.20;;;;;;5014720;28;20507;-75
2022/12/21 08:43:37;;;;;;;1.63;1.10;;;10.10;98.20;;;;;;5019197;28;20549;-77
2022/12/21 08:46:05;;;;;;;1.90;1.70;;;10.10;98.20;;;;;;5015500;28;20893;-75
2022/12/21 08:48:33;;;;;;;1.60;1.20;;;10.20;98.20;;;;;;5033023;28;20490;-78
2022/12/21 08:51:00;;;;;;;1.63;1.20;;;10.20;98.20;;;;;;5013356;28;20482;-78
2022/12/21 08:53:29;;;;;;;1.60;1.10;;;10.20;98.20;;;;;;5014417;28;20541;-77
2022/12/21 08:55:58;;;;;;;1.60;1.10;;;10.20;98.20;;;;;;5018753;28;20498;-78
2022/12/21 08:58:25;;;;;;;1.60;1.20;;;10.20;98.20;;;;;;5016757;28;20474;-78
2022/12/21 09:00:53;;;;;;;1.67;1.20;;;10.20;98.20;;;;;;5018245;28;21105;-76
2022/12/21 09:03:21;;;;;;;1.60;1.10;;;10.30;98.20;;;;;;5025459;28;20822;-76
2022/12/21 09:05:53;;;;;;;1.60;1.20;;;10.30;98.20;;;;;;5020048;28;20508;-78
2022/12/21 09:08:28;;;;;;;1.60;1.10;;;10.30;98.20;;;;;;5015312;28;20525;-75
2022/12/21 09:11:00;;;;;;;1.60;1.10;;;10.40;98.20;;;;;;5020516;28;20458;-79
2022/12/21 09:13:28;;;;;;;1.60;1.03;;;10.40;98.20;;;;;;5024056;28;20474;-76
2022/12/21 09:15:54;;;;;;;1.60;1.10;;;10.40;98.20;;;;;;5019450;28;20515;-78
2022/12/21 09:18:21;;;;;;;1.60;1.10;;;10.40;98.20;;;;;;5017242;28;20490;-76
2022/12/21 09:20:48;;;;;;;1.67;1.20;;;10.40;98.20;;;;;;5025616;28;20470;-80
2022/12/21 09:23:15;;;;;;;1.60;1.13;;;10.40;98.20;;;;;;5014886;28;20585;-77
2022/12/21 09:25:44;;;;;;;1.60;1.10;;;10.40;98.20;;;;;;5030789;28;20496;-76
2022/12/21 09:28:11;;;;;;;1.60;1.20;;;10.40;98.20;;;;;;5003898;28;20487;-75
2022/12/21 09:30:38;;;;;;;1.63;1.17;;;10.40;98.20;;;;;;5025314;28;20463;-75
2022/12/21 09:33:05;;;;;;;1.60;1.17;;;10.50;98.20;;;;;;5012844;28;20765;-75
2022/12/21 09:35:36;;;;;;;1.60;1.10;;;10.50;98.20;;;;;;5029128;28;20502;-75
2022/12/21 09:38:04;;;;;;;1.60;1.10;;;10.60;98.20;;;;;;5010688;28;20570;-75
2022/12/21 09:40:32;;;;;;;1.60;1.20;;;10.60;98.20;;;;;;5030716;28;20468;-75
2022/12/21 09:43:08;;;;;;;1.60;1.10;;;10.60;98.20;;;;;;5003079;28;20565;-75
2022/12/21 09:45:46;;;;;;;1.70;1.30;;;10.50;98.20;;;;;;5024672;28;20525;-76
2022/12/21 09:48:15;;;;;;;1.60;1.20;;;10.50;98.20;;;;;;5000418;28;20487;-75
2022/12/21 09:50:47;;;;;;;1.63;1.20;;;10.30;98.20;;;;;;5019716;28;20916;-76
2022/12/21 09:53:22;;;;;;;1.60;1.10;;;10.30;98.20;;;;;;5004985;28;20494;-77
2022/12/21 09:55:54;;;;;;;1.63;1.30;;;10.20;98.20;;;;;;5013519;28;20524;-75
2022/12/21 09:58:26;;;;;;;1.60;1.17;;;10.10;98.20;;;;;;5031128;28;20578;-77
2022/12/21 10:01:05;;;;;;;1.70;1.20;;;10.10;98.20;;;;;;5012120;28;20550;-77
2022/12/21 10:03:47;;;;;;;1.60;1.10;;;10.10;98.20;;;;;;5023528;28;20466;-77
2022/12/21 10:06:31;;;;;;;1.60;1.10;;;10.00;98.20;;;;;;5010516;28;20866;-75
2022/12/21 10:09:15;;;;;;;1.80;1.50;;;10.00;98.20;;;;;;5019637;28;20837;-76
2022/12/21 10:11:55;;;;;;;1.63;1.20;;;10.00;98.20;;;;;;5012774;28;20951;-75
2022/12/21 10:14:36;;;;;;;1.70;1.30;;;10.00;98.20;;;;;;5027456;28;20479;-76
2022/12/21 10:17:10;;;;;;;1.60;1.10;;;10.10;98.20;;;;;;5007094;28;20479;-76
2022/12/21 10:19:48;;;;;;;1.60;1.10;;;10.10;98.20;;;;;;5021135;28;20462;-75
2022/12/21 10:22:21;;;;;;;1.60;1.17;;;10.10;98.20;;;;;;5008930;28;20484;-76
2022/12/21 10:24:51;;;;;;;1.60;1.20;;;10.10;98.20;;;;;;5023117;28;20487;-78
2022/12/21 10:27:26;;;;;;;1.60;1.10;;;10.10;98.20;;;;;;5017030;28;20994;-80
2022/12/21 10:29:57;;;;;;;1.60;1.20;;;10.10;98.20;;;;;;5028869;28;20972;-75
2022/12/21 10:32:28;;;;;;;1.60;1.10;;;10.10;98.20;;;;;;5016697;28;21011;-80
2022/12/21 10:34:56;;;;;;;1.63;1.20;;;10.10;98.20;;;;;;5026256;28;20475;-76
2022/12/21 10:37:23;;;;;;;2.03;1.20;;;10.10;98.20;;;;;;5007120;28;20704;-76
2022/12/21 10:39:55;;;;;;;1.63;1.10;;;10.10;98.20;;;;;;5025103;28;21138;-76
2022/12/21 10:42:27;;;;;;;1.60;1.13;;;10.10;98.20;;;;;;5009918;28;20507;-80
2022/12/21 10:44:55;;;;;;;1.60;1.10;;;10.10;98.20;;;;;;5024666;28;20497;-75
2022/12/21 10:47:24;;;;;;;1.60;1.20;;;10.20;98.20;;;;;;5016592;28;20474;-77
2022/12/21 10:50:02;;;;;;;1.60;1.10;;;10.20;98.20;;;;;;5027767;28;20959;-78
2022/12/21 10:52:34;;;;;;;1.60;1.10;;;10.20;98.20;;;;;;5009576;28;20980;-77
2022/12/21 10:55:02;;;;;;;1.60;1.10;;;10.30;98.20;;;;;;5026456;28;20529;-75
2022/12/21 10:57:32;;;;;;;1.60;1.20;;;10.30;98.20;;;;;;5010359;28;20847;-78
2022/12/21 11:00:05;;;;;;;1.60;1.20;;;10.30;98.20;;;;;;5025335;28;20470;-76
2022/12/21 11:02:36;;;;;;;1.60;1.10;;;10.30;98.20;;;;;;5016201;28;20475;-76
2022/12/21 11:05:03;;;;;;;1.60;1.17;;;10.30;98.20;;;;;;5026048;28;20490;-79
2022/12/21 11:07:31;;;;;;;1.70;1.30;;;10.30;98.20;;;;;;5017643;28;21065;-77
2022/12/21 11:10:00;;;;;;;1.63;1.30;;;10.30;98.20;;;;;;5028417;28;20467;-75
2022/12/21 11:12:28;;;;;;;1.60;1.10;;;10.30;98.20;;;;;;5009669;28;20497;-80
2022/12/21 11:14:56;;;;;;;1.63;1.20;;;10.30;98.20;;;;;;5025841;28;20585;-79
2022/12/21 11:17:26;;;;;;;1.60;1.10;;;10.30;98.20;;;;;;5013261;28;20993;-77
2022/12/21 11:20:00;;;;;;;1.60;1.20;;;10.50;98.20;;;;;;5027770;28;21202;-77
2022/12/21 11:22:29;;;;;;;1.60;1.20;;;10.60;98.20;;;;;;5013844;28;20923;-77
2022/12/21 11:24:59;;;;;;;1.67;1.20;;;10.70;98.20;;;;;;5024718;28;20479;-77
2022/12/21 11:27:28;;;;;;;1.60;1.10;;;10.70;98.20;;;;;;5021490;28;20487;-77
2022/12/21 11:29:57;;;;;;;1.60;1.10;;;10.80;98.20;;;;;;5028072;28;20470;-78
2022/12/21 11:32:27;;;;;;;1.60;1.10;;;10.90;98.20;;;;;;5009808;28;20510;-80
2022/12/21 11:34:56;;;;;;;1.60;1.20;;;10.90;98.20;;;;;;5022203;28;20483;-75
2022/12/21 11:37:26;;;;;;;1.60;1.10;;;11.00;98.20;;;;;;5005235;28;20496;-77
2022/12/21 11:39:57;;;;;;;1.60;1.10;;;11.00;98.20;;;;;;5028879;28;20541;-76
2022/12/21 11:42:25;;;;;;;1.60;1.10;;;11.00;98.20;;;;;;5012819;28;20573;-78
2022/12/21 11:45:05;;;;;;;1.60;1.10;;;11.00;98.20;;;;;;5027057;28;20490;-77
2022/12/21 11:47:42;;;;;;;1.60;1.10;;;11.00;98.20;;;;;;5015196;28;20902;-79
2022/12/21 11:50:36;;;;;;;1.60;1.23;;;10.90;98.20;;;;;;5025993;28;20470;-76
2022/12/21 11:53:16;;;;;;;1.60;1.20;;;10.80;98.20;;;;;;5020506;28;20486;-78
2022/12/21 11:55:55;;;;;;;1.63;1.10;;;10.70;98.20;;;;;;5028717;28;20483;-77
2022/12/21 11:58:39;;;;;;;1.60;1.10;;;10.70;98.20;;;;;;5009182;28;20562;-75
2022/12/21 12:01:14;;;;;;;1.60;1.10;;;10.70;98.20;;;;;;5018809;28;20459;-78
2022/12/21 12:03:56;;;;;;;1.63;1.20;;;10.60;98.20;;;;;;5030846;28;20481;-77
2022/12/21 12:06:49;;;;;;;1.60;1.10;;;10.60;98.20;;;;;;5016180;28;20478;-76
2022/12/21 12:09:34;;;;;;;1.70;1.20;;;10.60;98.20;;;;;;5018166;28;20467;-78
2022/12/21 12:12:08;;;;;;;1.60;1.20;;;10.60;98.20;;;;;;5007519;28;20482;-77
2022/12/21 12:14:53;;;;;;;1.60;1.10;;;10.60;98.20;;;;;;5025620;28;20786;-75
2022/12/21 12:17:34;;;;;;;1.60;1.10;;;10.50;98.20;;;;;;5018119;28;20478;-77
2022/12/21 12:20:12;;;;;;;1.60;1.10;;;10.50;98.20;;;;;;5030902;28;20465;-76
2022/12/21 12:23:03;;;;;;;1.60;1.10;;;10.50;98.20;;;;;;5011954;28;20487;-75
2022/12/21 12:25:56;;;;;;;1.60;1.20;;;10.50;98.20;;;;;;5026307;28;20471;-78
2022/12/21 12:28:38;;;;;;;1.60;1.10;;;10.60;98.20;;;;;;5010805;28;20491;-81
2022/12/21 12:31:22;;;;;;;1.60;1.13;;;10.60;98.20;;;;;;5018369;28;20818;-77
2022/12/21 12:34:06;;;;;;;1.60;1.10;;;10.60;98.20;;;;;;5031374;28;20477;-79
2022/12/21 12:36:45;;;;;;;1.60;1.20;;;10.60;98.20;;;;;;5015624;28;20893;-77
2022/12/21 12:39:19;;;;;;;1.60;1.10;;;10.60;98.20;;;;;;5022692;28;20455;-75
2022/12/21 12:41:52;;;;;;;1.60;1.10;;;10.60;98.20;;;;;;5017773;28;21027;-77
2022/12/21 12:44:27;;;;;;;1.60;1.10;;;10.70;98.20;;;;;;5031984;28;20489;-78
2022/12/21 12:47:07;;;;;;;1.60;1.10;;;10.60;98.20;;;;;;5013264;28;20478;-78
2022/12/21 12:49:49;;;;;;;1.60;1.17;;;10.70;98.20;;;;;;5028429;28;20463;-78
2022/12/21 12:52:31;;;;;;;1.60;1.20;;;10.70;98.20;;;;;;5025746;28;20541;-79
2022/12/21 12:55:10;;;;;;;1.60;1.17;;;10.70;98.20;;;;;;5036046;28;20565;-76
2022/12/21 12:57:46;;;;;;;1.60;1.10;;;10.70;98.20;;;;;;5008715;28;20479;-77
2022/12/21 13:00:16;;;;;;;1.60;1.03;;;10.70;98.20;;;;;;5028706;28;20573;-78
2022/12/21 13:02:49;;;;;;;1.60;1.10;;;10.60;98.20;;;;;;5019017;28;20484;-80
2022/12/21 13:05:32;;;;;;;1.60;1.10;;;10.70;98.20;;;;;;5036078;28;20553;-77
2022/12/21 13:08:14;;;;;;;1.60;1.10;;;10.70;98.20;;;;;;5005351;28;20507;-81
2022/12/21 13:10:49;;;;;;;1.60;1.10;;;10.70;98.20;;;;;;5036263;28;20546;-80
2022/12/21 13:13:24;;;;;;;1.60;1.10;;;10.70;98.20;;;;;;5004240;28;20470;-78
2022/12/21 13:15:55;;;;;;;1.60;1.10;;;10.60;98.20;;;;;;5022534;28;20478;-76
2022/12/21 13:18:25;;;;;;;2.63;2.07;;;10.60;98.20;;;;;;5021033;28;20454;-76
2022/12/21 13:20:56;;;;;;;1.63;1.20;;;10.60;98.20;;;;;;5025183;28;21029;-77
2022/12/21 13:23:37;;;;;;;1.60;1.10;;;10.60;98.20;;;;;;5020294;28;20471;-79
2022/12/21 13:26:09;;;;;;;1.60;1.17;;;10.60;98.20;;;;;;5019236;28;20475;-78
2022/12/21 13:28:46;;;;;;;1.60;1.10;;;10.60;98.20;;;;;;5018721;28;20476;-77